WetterOnline ( https://www.wetteronline.de )

Wetter aktuell Vysluni

Aktuelles Wetter: Tusimice (326m)

6-stündlich | Neueste Meldungen
Ortszeit Temperatur Wetter
So, 19.05. 8:00 13.6° C leichter Regen
So, 19.05. 2:00 10.7° C wolkig
Sa, 18.05. 20:00 15.1° C wolkig
Sa, 18.05. 14:00 16.1° C leichte Schauer
Sa, 18.05. 8:00 11.5° C bedeckt
Sa, 18.05. 2:00 10.9° C bedeckt
Fr, 17.05. 20:00 11.6° C leichter Regen
Fr, 17.05. 14:00 12.1° C leichter Regen
Ortszeit Temperatur Wetter
So, 19.05. 13:00 20.5° C wolkig
So, 19.05. 12:00 18.0° C wolkig
So, 19.05. 11:00 16.6° C wolkig
So, 19.05. 10:00 15.0° C wolkig, nach Regen
So, 19.05. 9:00 13.3° C leichter Regen
So, 19.05. 8:00 13.6° C leichter Regen
Ortszeit Relative Feuchte Sichtweite
So, 19.05. 8:00 86% 18 km
So, 19.05. 2:00 95% 25 km
Sa, 18.05. 20:00 83% 22 km
Sa, 18.05. 14:00 76% 20 km
Sa, 18.05. 8:00 90% 8 km
Sa, 18.05. 2:00 91% 35 km
Fr, 17.05. 20:00 94% 5.0 km
Fr, 17.05. 14:00 86% 9 km
Ortszeit Relative Feuchte Sichtweite
So, 19.05. 13:00 51% 30 km
So, 19.05. 12:00 68% 30 km
So, 19.05. 11:00 72% 20 km
So, 19.05. 10:00 81% 18 km
So, 19.05. 9:00 87% 15 km
So, 19.05. 8:00 86% 18 km
Ortszeit Niederschlagsmenge Niederschlagsart
So, 19.05. 8:00 0.1 l/m2 in 12 Std. -
So, 19.05. 2:00 0.1 l/m2 in 6 Std. Schauer
Sa, 18.05. 20:00 1 l/m2 in 12 Std. Regenschauer
Sa, 18.05. 14:00 1 l/m2 in 6 Std. Regenschauer
Sa, 18.05. 8:00 0.5 l/m2 in 12 Std. -
Sa, 18.05. 2:00 0.2 l/m2 in 6 Std. Regenschauer
Fr, 17.05. 20:00 3 l/m2 in 12 Std. Regen
Fr, 17.05. 14:00 2 l/m2 in 6 Std. Regen
Ortszeit Niederschlagsmenge Niederschlagsart
So, 19.05. 13:00 0.0 l/m2 in 1 Std. -
So, 19.05. 12:00 0.0 l/m2 in 1 Std. -
So, 19.05. 11:00 0.0 l/m2 in 1 Std. Regen
So, 19.05. 10:00 0.1 l/m2 in 1 Std. Regen
So, 19.05. 9:00 0.4 l/m2 in 1 Std. Regen
So, 19.05. 8:00 0.0 l/m2 in 1 Std. -
Ortszeit Stärke Spitze Richtung
km/h Bft. km/h Grad Sektor
So, 19.05. 8:00 4 1 - 270° W
So, 19.05. 2:00 7 2 - 230° SW
Sa, 18.05. 20:00 7 2 - 20° N
Sa, 18.05. 14:00 4 1 - uml. uml.
Sa, 18.05. 8:00 4 1 - uml. uml.
Sa, 18.05. 2:00 4 1 - 150° SO
Fr, 17.05. 20:00 11 2 - 90° O
Fr, 17.05. 14:00 18 3 47 90° O
Ortszeit Stärke Spitze Richtung
km/h Bft. km/h Grad Sektor
So, 19.05. 13:00 14 3 - 210° SW
So, 19.05. 12:00 7 2 - uml. uml.
So, 19.05. 11:00 4 1 - uml. uml.
So, 19.05. 10:00 4 1 - uml. uml.
So, 19.05. 9:00 7 2 - 260° W
So, 19.05. 8:00 4 1 - 270° W
Ortszeit Untergrenze Bedeckung Gattung
total tief tief mittel hoch
So, 19.05. 8:00 1140 m 6/8 2/8 Sc As -
So, 19.05. 2:00 2400 m - 6/8 - - -
Sa, 18.05. 20:00 990 m 5/8 2/8 Cu Ac -
Sa, 18.05. 14:00 750 m 8/8 8/8 Cu - -
Sa, 18.05. 8:00 780 m 8/8 8/8 Sc - -
Sa, 18.05. 2:00 1320 m - 8/8 - - -
Fr, 17.05. 20:00 150 m 8/8 8/8 Sc - -
Fr, 17.05. 14:00 420 m 8/8 8/8 Sc - -
Ortszeit Bedeckungsgrad in Achtel und Wolkenuntergrenze
So, 19.05. 13:00 1(1140m) 5(1140m)
So, 19.05. 12:00 5(840m)
So, 19.05. 11:00 3(870m) 4(2700m)
So, 19.05. 10:00 1(690m) 6(2400m)
So, 19.05. 9:00 1(900m) 6(2400m)
So, 19.05. 8:00 2(1140m) 6(4500m)
Ortszeit Luftdruck NN (hPa) Tendenz (hPa in 3 Std.)
So, 19.05. 8:00 1012 + 0,8
So, 19.05. 2:00 1012 + 0,1
Sa, 18.05. 20:00 1010 0,0
Sa, 18.05. 14:00 1010 + 0,1
Sa, 18.05. 8:00 1010 + 0,5
Sa, 18.05. 2:00 1010 - 0,1
Fr, 17.05. 20:00 1010 + 0,4
Fr, 17.05. 14:00 1010 + 1,0
Ortszeit Luftdruck NN (hPa) Tendenz (hPa in 3 Std.)
So, 19.05. 13:00 1010 - 0,7
So, 19.05. 12:00 1011 0,0
So, 19.05. 11:00 1011 + 0,1
So, 19.05. 10:00 1012 + 0,3
So, 19.05. 9:00 1012 + 0,6
So, 19.05. 8:00 1012 + 0,8
Ortszeit Schneehöhe (cm)
So, 19.05. 8:00 -
So, 19.05. 2:00 -
Sa, 18.05. 20:00 -
Sa, 18.05. 14:00 -
Sa, 18.05. 8:00 -
Sa, 18.05. 2:00 -
Fr, 17.05. 20:00 -
Fr, 17.05. 14:00 -
Ortszeit Schneehöhe (cm)
So, 19.05. 13:00 -
So, 19.05. 12:00 -
So, 19.05. 11:00 -
So, 19.05. 10:00 -
So, 19.05. 9:00 -
So, 19.05. 8:00 -
Link zu dieser Seite / Seite empfehlen

Das Wetter in ...